This is the latest recevied weather packets stored in our database for station/object VE3GSI. If no packets are shown the sender has not sent any weather packets the latest 10 day(s).
| Time | Temp. | Humidity | Pressure | Rain* | Wind** | Luminosity | Snow |
|---|---|---|---|---|---|---|---|
| 1777715765 | 2.78° C | 82% | 1011.2 hPa | 0 mm | - | - | - |
| 1777709166 | 3.33° C | 75% | 1010.7 hPa | 0 mm | - | - | - |
| 1777707965 | 3.89° C | 73% | 1010.5 hPa | 0 mm | - | - | - |
| 1777705566 | 4.44° C | 69% | 1010.8 hPa | 0 mm | - | - | - |
| 1777701966 | 5.56° C | 65% | 1010.8 hPa | 0 mm | - | - | - |
| 1777691765 | 2.22° C | 89% | 1010.7 hPa | 0 mm | - | - | - |
| 1777691169 | 2.22° C | 88% | 1010.7 hPa | 0 mm | - | - | - |
| 1777684565 | 5.56° C | 77% | 1010.6 hPa | 0 mm | - | - | - |
| 1777683966 | 6.11° C | 77% | 1010.6 hPa | 0 mm | - | - | - |
| 1777682165 | 6.11° C | 73% | 1010.4 hPa | 0 mm | - | - | - |
| 1777675566 | 9.44° C | 59% | 1009.8 hPa | 0 mm | - | - | - |
| 1777673765 | 10° C | 57% | 1009.8 hPa | 0 mm | - | - | - |
| 1777673166 | 9.44° C | 57% | 1009.8 hPa | 0 mm | - | - | - |
| 1777671965 | 9.44° C | 56% | 1009.9 hPa | 0 mm | - | - | - |
| 1777671365 | 9.44° C | 54% | 1009.8 hPa | 0 mm | - | - | - |
| 1777668366 | 10.56° C | 53% | 1009.5 hPa | 0 mm | - | - | - |
| 1777666565 | 10.56° C | 53% | 1009.6 hPa | 0 mm | - | - | - |
| 1777661765 | 11.11° C | 50% | 1010.1 hPa | 0 mm | - | - | - |
| 1777645565 | 9.44° C | 58% | 1011.7 hPa | 0 mm | - | - | - |
| 1777644365 | 8.33° C | 63% | 1011.6 hPa | 0 mm | - | - | - |
| 1777629965 | -2.22° C | 94% | 1011.4 hPa | 0 mm | - | - | - |
| 1777625765 | -1.67° C | 92% | 1011.3 hPa | 0 mm | - | - | - |
| 1777624565 | -1.67° C | 92% | 1011.1 hPa | 0 mm | - | - | - |
| 1777619765 | -0.56° C | 86% | 1010.7 hPa | 0 mm | - | - | - |
| 1777613764 | 3.33° C | 79% | 1010.9 hPa | 0 mm | - | - | - |
* Rain latest hour (hover to see other rain measurements)
** Current wind speed in m/s (hover to see current wind gust speed)